createdAt,value
2022-12-27T00:01:12.355Z,2.73
2022-12-27T00:03:41.355Z,2.70
2022-12-27T00:06:16.019Z,2.64
2022-12-27T00:08:46.603Z,2.58
2022-12-27T00:11:17.395Z,2.54
2022-12-27T00:13:45.657Z,2.48
2022-12-27T00:16:16.137Z,2.45
2022-12-27T00:18:44.462Z,2.48
2022-12-27T00:21:14.286Z,2.50
2022-12-27T00:23:45.602Z,2.41
2022-12-27T00:26:17.314Z,2.27
2022-12-27T00:28:46.754Z,2.26
2022-12-27T00:31:15.793Z,2.23
2022-12-27T00:33:45.619Z,2.26
2022-12-27T00:36:16.299Z,2.16
2022-12-27T00:38:44.836Z,2.07
2022-12-27T00:41:14.853Z,2.05
2022-12-27T00:43:43.261Z,2.04
2022-12-27T00:46:11.494Z,2.04
2022-12-27T00:48:40.031Z,2.05
2022-12-27T00:51:09.786Z,2.00
2022-12-27T00:53:38.238Z,1.96
2022-12-27T00:56:08.810Z,1.99
2022-12-27T00:58:41.013Z,2.06
2022-12-27T01:01:10.798Z,2.20
2022-12-27T01:03:39.057Z,2.17
2022-12-27T01:06:08.018Z,2.14
2022-12-27T01:08:36.402Z,2.11
2022-12-27T01:11:05.083Z,2.06
2022-12-27T01:13:33.098Z,2.07
2022-12-27T01:16:03.000Z,2.08
2022-12-27T01:18:31.141Z,2.00
2022-12-27T01:20:59.310Z,1.92
2022-12-27T01:23:27.853Z,1.85
2022-12-27T01:26:01.643Z,1.84
2022-12-27T01:28:30.134Z,1.82
2022-12-27T01:30:58.274Z,1.85
2022-12-27T01:33:27.772Z,1.89
2022-12-27T01:35:55.877Z,1.86
2022-12-27T01:38:23.915Z,1.80
2022-12-27T01:40:51.947Z,1.73
2022-12-27T01:43:19.474Z,1.68
2022-12-27T01:45:49.104Z,1.64
2022-12-27T01:48:22.716Z,1.65
2022-12-27T01:50:55.588Z,1.64
2022-12-27T01:53:25.840Z,1.66
2022-12-27T01:55:57.367Z,1.61
2022-12-27T01:58:30.273Z,1.55
2022-12-27T02:00:59.714Z,1.53
2022-12-27T02:03:31.479Z,1.56
2022-12-27T02:06:03.575Z,1.63
2022-12-27T02:08:40.718Z,1.56
2022-12-27T02:11:10.172Z,1.52
2022-12-27T02:13:42.208Z,1.46
2022-12-27T02:16:15.591Z,1.49
2022-12-27T02:18:44.174Z,1.54
2022-12-27T02:21:51.611Z,1.55
2022-12-27T02:24:41.470Z,1.51
2022-12-27T02:27:27.347Z,1.55
2022-12-27T02:30:03.091Z,1.57
2022-12-27T02:32:35.985Z,1.51
2022-12-27T02:35:10.713Z,1.45
2022-12-27T02:37:42.703Z,1.42
2022-12-27T02:40:30.780Z,1.56
2022-12-27T02:43:16.879Z,1.51
2022-12-27T02:46:11.288Z,1.46
2022-12-27T02:48:56.790Z,1.42
2022-12-27T02:51:56.065Z,1.49
2022-12-27T02:54:50.510Z,1.62
2022-12-27T02:57:30.778Z,1.49
2022-12-27T03:00:25.389Z,1.46
2022-12-27T03:03:29.390Z,1.46
2022-12-27T03:06:37.416Z,1.49
2022-12-27T03:09:35.545Z,1.71
2022-12-27T03:12:28.365Z,1.79
2022-12-27T03:15:18.519Z,1.74
2022-12-27T03:17:53.245Z,1.67
2022-12-27T03:20:41.412Z,1.63
2022-12-27T03:23:28.765Z,1.56
2022-12-27T03:25:59.357Z,1.55
2022-12-27T03:28:48.450Z,1.63
2022-12-27T03:31:37.866Z,1.55
2022-12-27T03:34:24.187Z,1.47
2022-12-27T03:37:12.429Z,1.44
2022-12-27T03:39:48.503Z,1.34
2022-12-27T03:42:42.592Z,1.26
2022-12-27T03:45:11.576Z,1.27
2022-12-27T03:47:46.546Z,1.26
2022-12-27T03:50:22.141Z,1.20
2022-12-27T03:52:58.235Z,1.19
2022-12-27T03:55:33.028Z,1.36
2022-12-27T03:58:01.406Z,1.29
2022-12-27T04:00:30.939Z,1.34
2022-12-27T04:02:59.235Z,1.40
2022-12-27T04:05:27.497Z,1.30
2022-12-27T04:08:14.626Z,1.20
2022-12-27T04:11:00.009Z,1.16
2022-12-27T04:13:45.612Z,1.06
2022-12-27T04:16:31.336Z,0.97
2022-12-27T04:19:16.774Z,0.93
2022-12-27T04:22:02.477Z,1.01
2022-12-27T04:24:49.479Z,1.01
2022-12-27T04:27:35.142Z,0.97
2022-12-27T04:30:20.728Z,0.93
2022-12-27T04:33:06.200Z,0.91
2022-12-27T04:35:34.403Z,0.83
2022-12-27T04:38:02.425Z,0.80
2022-12-27T04:40:49.308Z,1.04
2022-12-27T04:43:34.680Z,0.89
2022-12-27T04:46:20.252Z,0.76
2022-12-27T04:49:05.920Z,0.73
2022-12-27T04:51:51.203Z,0.69
2022-12-27T04:54:38.358Z,0.68
2022-12-27T04:57:08.093Z,0.65
2022-12-27T04:59:53.776Z,0.59
2022-12-27T05:02:22.332Z,0.60
2022-12-27T05:04:50.720Z,0.63
2022-12-27T05:07:36.313Z,0.65
2022-12-27T05:10:24.832Z,0.77
2022-12-27T05:13:11.891Z,0.78
2022-12-27T05:15:40.256Z,0.83
2022-12-27T05:18:08.441Z,0.76
2022-12-27T05:20:36.585Z,0.82
2022-12-27T05:23:22.205Z,0.75
2022-12-27T05:25:50.318Z,0.66
2022-12-27T05:28:19.836Z,0.58
2022-12-27T05:30:47.942Z,0.56
2022-12-27T05:33:16.078Z,0.55
2022-12-27T05:35:44.233Z,0.65
2022-12-27T05:38:12.502Z,0.69
2022-12-27T05:40:40.666Z,0.70
2022-12-27T05:43:08.800Z,0.70
2022-12-27T05:45:38.302Z,0.59
2022-12-27T05:48:07.170Z,0.63
2022-12-27T05:50:35.263Z,0.65
2022-12-27T05:53:03.470Z,0.62
2022-12-27T05:55:31.476Z,0.59
2022-12-27T05:57:59.551Z,0.67
2022-12-27T06:00:27.649Z,0.63
2022-12-27T06:02:57.363Z,0.60
2022-12-27T06:05:25.519Z,0.66
2022-12-27T06:07:53.535Z,0.81
2022-12-27T06:10:21.788Z,0.76
2022-12-27T06:12:50.034Z,0.82
2022-12-27T06:15:18.534Z,0.99
2022-12-27T06:17:46.765Z,0.91
2022-12-27T06:20:16.504Z,0.86
2022-12-27T06:22:44.885Z,0.97
2022-12-27T06:25:14.475Z,0.96
2022-12-27T06:27:42.818Z,0.98
2022-12-27T06:30:12.392Z,1.02
2022-12-27T06:32:40.921Z,1.04
2022-12-27T06:35:11.394Z,1.09
2022-12-27T06:37:40.998Z,1.14
2022-12-27T06:40:10.176Z,1.12
2022-12-27T06:42:38.318Z,1.11
2022-12-27T06:45:09.488Z,1.26
2022-12-27T06:47:37.677Z,1.32
2022-12-27T06:50:06.637Z,1.37
2022-12-27T06:52:34.897Z,1.39
2022-12-27T06:55:04.797Z,1.46
2022-12-27T06:57:32.936Z,1.49
2022-12-27T07:00:01.801Z,1.51
2022-12-27T07:02:30.099Z,1.60
2022-12-27T07:04:58.320Z,1.61
2022-12-27T07:07:26.396Z,1.66
2022-12-27T07:09:54.463Z,1.74
2022-12-27T07:12:24.067Z,1.85
2022-12-27T07:14:52.278Z,2.00
2022-12-27T07:17:20.342Z,2.04
2022-12-27T07:19:48.718Z,2.13
2022-12-27T07:22:17.005Z,2.22
2022-12-27T07:24:45.093Z,2.30
2022-12-27T07:27:15.668Z,2.32
2022-12-27T07:29:45.897Z,2.41
2022-12-27T07:32:14.181Z,2.48
2022-12-27T07:34:42.325Z,2.60
2022-12-27T07:37:10.552Z,2.76
2022-12-27T07:39:38.603Z,2.75
2022-12-27T07:42:08.909Z,2.82
2022-12-27T07:44:37.176Z,2.87
2022-12-27T07:47:06.908Z,2.89
2022-12-27T07:49:35.109Z,2.95
2022-12-27T07:52:03.443Z,3.09
2022-12-27T07:54:31.630Z,3.15
2022-12-27T08:23:17.037Z,4.07
2022-12-27T08:25:49.077Z,4.23
2022-12-27T08:28:19.533Z,4.25
2022-12-27T08:30:48.983Z,4.27
2022-12-27T08:33:17.900Z,4.33
2022-12-27T08:35:53.737Z,4.45
2022-12-27T08:38:23.875Z,4.53
2022-12-27T08:40:52.142Z,4.60
2022-12-27T08:43:21.140Z,4.84
2022-12-27T08:45:49.369Z,4.85
2022-12-27T08:48:19.546Z,4.94
2022-12-27T08:50:47.824Z,5.03
2022-12-27T08:53:16.006Z,5.18
2022-12-27T08:55:45.492Z,5.34
2022-12-27T08:58:16.461Z,5.48
2022-12-27T09:00:44.990Z,5.58
2022-12-27T09:03:16.304Z,5.68
2022-12-27T09:05:44.811Z,5.78
2022-12-27T09:08:13.345Z,5.90
2022-12-27T09:10:41.548Z,6.41
2022-12-27T09:13:11.236Z,6.38
2022-12-27T09:15:39.565Z,6.47
2022-12-27T09:18:08.039Z,6.68
2022-12-27T09:20:36.436Z,6.74
2022-12-27T09:23:04.572Z,6.66
2022-12-27T09:25:32.674Z,6.74
2022-12-27T09:28:00.862Z,7.02
2022-12-27T09:30:30.489Z,7.10
2022-12-27T09:32:59.809Z,7.18
2022-12-27T09:35:28.089Z,7.26
2022-12-27T09:37:56.264Z,7.42
2022-12-27T09:40:24.639Z,7.52
2022-12-27T09:43:12.524Z,7.75
2022-12-27T09:45:52.923Z,7.82
2022-12-27T09:48:32.952Z,8.08
2022-12-27T09:51:06.692Z,8.08
2022-12-27T09:53:43.814Z,8.25
2022-12-27T09:56:14.407Z,8.20
2022-12-27T09:58:49.089Z,8.31
2022-12-27T10:01:32.944Z,8.40
2022-12-27T10:04:01.775Z,8.48
2022-12-27T10:06:54.684Z,8.57
2022-12-27T10:09:37.026Z,8.75
2022-12-27T10:12:17.693Z,8.97
2022-12-27T10:15:04.636Z,9.02
2022-12-27T10:17:52.842Z,9.08
2022-12-27T10:20:32.185Z,9.22
2022-12-27T10:23:06.460Z,9.33
2022-12-27T10:25:37.118Z,9.66
2022-12-27T10:28:23.143Z,9.69
2022-12-27T10:30:52.253Z,9.70
2022-12-27T10:33:27.065Z,9.75
2022-12-27T10:35:55.595Z,9.80
2022-12-27T10:38:24.679Z,9.94
2022-12-27T10:40:59.053Z,10.04
2022-12-27T10:43:33.549Z,10.21
2022-12-27T10:46:13.851Z,10.34
2022-12-27T10:49:20.272Z,10.39
2022-12-27T10:51:45.537Z,10.54
2022-12-27T10:54:15.736Z,10.64
2022-12-27T10:56:45.048Z,10.65
2022-12-27T10:59:17.104Z,10.76
2022-12-27T11:01:46.789Z,10.79
2022-12-27T11:04:20.968Z,10.91
2022-12-27T11:06:52.435Z,11.03
2022-12-27T11:09:32.406Z,11.22
2022-12-27T11:12:23.937Z,11.52
2022-12-27T11:14:57.137Z,11.73
2022-12-27T11:17:29.686Z,11.70
2022-12-27T11:20:04.336Z,11.79
2022-12-27T11:22:33.357Z,11.87
2022-12-27T11:25:02.241Z,12.10
2022-12-27T11:27:32.053Z,12.32
2022-12-27T11:30:01.144Z,12.30
2022-12-27T11:32:29.341Z,12.50
2022-12-27T11:34:59.234Z,12.56
2022-12-27T11:37:28.486Z,12.86
2022-12-27T11:40:12.040Z,12.86
2022-12-27T11:42:45.671Z,12.82
2022-12-27T11:45:22.209Z,12.91
2022-12-27T11:47:55.766Z,12.97
2022-12-27T11:50:41.029Z,13.03
2022-12-27T11:53:30.311Z,13.18
2022-12-27T11:56:14.491Z,13.32
2022-12-27T11:59:16.591Z,13.48
2022-12-27T12:02:18.602Z,13.60
2022-12-27T12:05:43.343Z,13.72
2022-12-27T12:08:36.240Z,13.77
2022-12-27T12:11:17.089Z,13.87
2022-12-27T12:14:11.470Z,13.98
2022-12-27T12:17:04.216Z,14.05
2022-12-27T12:20:05.557Z,13.99
2022-12-27T12:22:51.750Z,14.07
2022-12-27T12:25:48.910Z,14.04
2022-12-27T12:28:58.584Z,13.95
2022-12-27T12:31:40.571Z,13.95
2022-12-27T12:34:24.701Z,14.16
2022-12-27T12:37:06.918Z,14.50
2022-12-27T12:39:56.267Z,14.66
2022-12-27T12:42:32.538Z,14.81
2022-12-27T12:45:22.167Z,15.52
2022-12-27T12:48:43.829Z,15.51
2022-12-27T12:51:27.643Z,15.52
2022-12-27T12:54:09.270Z,15.38
2022-12-27T12:57:03.243Z,15.48
2022-12-27T12:59:50.456Z,15.58
2022-12-27T13:02:39.136Z,15.45
2022-12-27T13:05:17.094Z,15.38
2022-12-27T13:07:57.378Z,15.33
2022-12-27T13:10:46.580Z,15.33
2022-12-27T13:13:24.106Z,15.46
2022-12-27T13:16:08.126Z,15.61
2022-12-27T13:18:47.782Z,15.68
2022-12-27T13:21:31.470Z,15.66
2022-12-27T13:24:08.602Z,15.74
2022-12-27T13:26:46.953Z,15.76
2022-12-27T13:29:37.140Z,15.75
2022-12-27T13:32:14.825Z,15.77
2022-12-27T13:34:55.252Z,15.86
2022-12-27T13:37:39.213Z,15.79
2022-12-27T13:40:25.178Z,15.71
2022-12-27T13:43:17.824Z,15.59
2022-12-27T13:46:02.153Z,15.52
2022-12-27T13:48:52.563Z,15.51
2022-12-27T13:51:39.639Z,15.58
2022-12-27T13:54:30.791Z,15.48
2022-12-27T13:57:13.235Z,15.41
2022-12-27T14:00:11.978Z,15.93
2022-12-27T14:03:26.469Z,16.27
2022-12-27T14:06:39.104Z,16.36
2022-12-27T14:09:31.047Z,16.30
2022-12-27T14:12:15.731Z,16.38
2022-12-27T14:14:46.392Z,16.43
2022-12-27T14:17:30.093Z,16.41
2022-12-27T14:20:18.747Z,16.47
2022-12-27T14:23:06.817Z,16.42
2022-12-27T14:26:06.155Z,16.42
2022-12-27T14:29:02.682Z,16.37
2022-12-27T14:32:07.817Z,16.29
2022-12-27T14:35:07.592Z,16.21
2022-12-27T14:38:18.462Z,16.13
2022-12-27T14:41:10.305Z,15.99
2022-12-27T14:44:11.696Z,15.77
2022-12-27T14:47:08.050Z,15.54
2022-12-27T14:50:08.878Z,15.33
2022-12-27T14:53:22.932Z,15.11
2022-12-27T14:56:03.707Z,15.07
2022-12-27T14:58:46.859Z,14.99
2022-12-27T15:01:28.664Z,14.92
2022-12-27T15:04:29.472Z,14.79
2022-12-27T15:07:21.335Z,14.71
2022-12-27T15:09:59.076Z,14.88
2022-12-27T15:12:37.612Z,14.82
2022-12-27T15:15:32.285Z,14.77
2022-12-27T15:18:23.972Z,14.75
2022-12-27T15:21:22.879Z,14.64
2022-12-27T15:23:56.028Z,14.50
2022-12-27T15:26:35.920Z,14.69
2022-12-27T15:29:21.044Z,14.53
2022-12-27T15:32:00.514Z,14.38
2022-12-27T15:34:50.372Z,14.27
2022-12-27T15:37:53.585Z,14.22
2022-12-27T15:40:37.371Z,14.18
2022-12-27T15:43:16.180Z,14.08
2022-12-27T15:46:01.662Z,14.04
2022-12-27T15:49:03.272Z,13.99
2022-12-27T15:51:38.074Z,13.95
2022-12-27T15:54:28.392Z,13.93
2022-12-27T15:57:24.661Z,14.14
2022-12-27T15:59:55.235Z,14.19
2022-12-27T16:02:33.436Z,14.32
2022-12-27T16:05:13.061Z,14.21
2022-12-27T16:07:44.879Z,14.04
2022-12-27T16:10:35.835Z,14.08
2022-12-27T16:13:23.004Z,14.19
2022-12-27T16:15:55.220Z,14.17
2022-12-27T16:19:10.779Z,14.25
2022-12-27T16:21:44.713Z,14.18
2022-12-27T16:24:19.446Z,14.03
2022-12-27T16:26:57.500Z,13.99
2022-12-27T16:29:30.213Z,13.91
2022-12-27T16:32:17.036Z,13.90
2022-12-27T16:34:47.247Z,13.88
2022-12-27T16:37:24.627Z,13.82
2022-12-27T16:40:07.485Z,13.87
2022-12-27T16:43:14.175Z,13.82
2022-12-27T16:45:50.847Z,13.78
2022-12-27T16:48:28.074Z,13.73
2022-12-27T16:51:09.887Z,13.78
2022-12-27T16:54:07.453Z,13.71
2022-12-27T16:56:37.500Z,13.62
2022-12-27T16:59:48.724Z,13.61
2022-12-27T17:02:33.752Z,13.57
2022-12-27T17:05:02.431Z,13.50
2022-12-27T17:07:51.451Z,13.54
2022-12-27T17:11:01.203Z,13.46
2022-12-27T17:13:46.396Z,13.35
2022-12-27T17:16:21.972Z,13.35
2022-12-27T17:18:57.974Z,13.38
2022-12-27T17:21:30.750Z,13.39
2022-12-27T17:24:01.977Z,13.36
2022-12-27T17:26:53.543Z,13.33
2022-12-27T17:29:51.226Z,13.31
2022-12-27T17:32:31.314Z,13.22
2022-12-27T17:35:07.491Z,13.12
2022-12-27T17:37:45.221Z,13.10
2022-12-27T17:40:27.688Z,13.09
2022-12-27T17:43:25.865Z,13.16
2022-12-27T17:46:00.004Z,13.17
2022-12-27T17:48:30.716Z,13.15
2022-12-27T17:51:03.536Z,13.21
2022-12-27T17:53:49.713Z,13.26
2022-12-27T17:56:37.834Z,13.25
2022-12-27T17:59:10.128Z,13.24
2022-12-27T18:01:45.396Z,13.20
2022-12-27T18:04:22.173Z,13.21
2022-12-27T18:06:55.812Z,13.15
2022-12-27T18:09:44.707Z,13.15
2022-12-27T18:12:18.895Z,13.05
2022-12-27T18:14:55.581Z,13.05
2022-12-27T18:17:29.360Z,12.99
2022-12-27T18:19:58.040Z,12.92
2022-12-27T18:22:28.875Z,12.86
2022-12-27T18:24:57.205Z,12.88
2022-12-27T18:27:26.992Z,12.83
2022-12-27T18:30:32.728Z,12.75
2022-12-27T18:33:11.850Z,12.66
2022-12-27T18:35:40.428Z,12.64
2022-12-27T18:38:10.371Z,12.60
2022-12-27T18:40:38.615Z,12.54
2022-12-27T18:43:16.737Z,12.57
2022-12-27T18:45:44.991Z,12.50
2022-12-27T18:48:13.916Z,12.53
2022-12-27T18:51:10.668Z,12.48
2022-12-27T18:53:55.688Z,12.44
2022-12-27T18:56:51.132Z,12.41
2022-12-27T18:59:25.879Z,12.38
2022-12-27T19:01:55.318Z,12.28
2022-12-27T19:04:26.913Z,12.23
2022-12-27T19:06:59.134Z,12.27
2022-12-27T19:09:32.508Z,12.25
2022-12-27T19:12:04.659Z,12.27
2022-12-27T19:14:38.972Z,12.21
2022-12-27T19:17:11.279Z,12.21
2022-12-27T19:19:40.004Z,12.24
2022-12-27T19:22:30.501Z,12.24
2022-12-27T19:25:02.091Z,12.21
2022-12-27T19:27:30.178Z,12.12
2022-12-27T19:29:58.222Z,12.03
2022-12-27T19:32:33.467Z,12.00
2022-12-27T19:35:04.301Z,11.99
2022-12-27T19:37:35.929Z,11.92
2022-12-27T19:40:07.256Z,11.83
2022-12-27T19:42:36.857Z,11.75
2022-12-27T19:45:05.188Z,11.61
2022-12-27T19:47:34.984Z,11.57
2022-12-27T19:50:03.241Z,11.53
2022-12-27T19:52:31.476Z,11.51
2022-12-27T19:55:03.675Z,11.48
2022-12-27T19:57:33.253Z,11.45
2022-12-27T20:00:05.520Z,11.44
2022-12-27T20:02:37.570Z,11.52
2022-12-27T20:05:09.908Z,11.53
2022-12-27T20:07:39.377Z,11.54
2022-12-27T20:10:08.338Z,11.56
2022-12-27T20:12:37.911Z,11.52
2022-12-27T20:15:07.192Z,11.57
2022-12-27T20:17:41.102Z,11.59
2022-12-27T20:20:13.555Z,11.50
2022-12-27T20:22:41.807Z,11.39
2022-12-27T20:25:11.043Z,11.35
2022-12-27T20:27:40.664Z,11.37
2022-12-27T20:30:10.493Z,11.30
2022-12-27T20:32:38.917Z,11.26
2022-12-27T20:35:08.219Z,11.22
2022-12-27T20:37:36.368Z,11.26
2022-12-27T20:40:05.298Z,11.27
2022-12-27T20:42:33.388Z,11.26
2022-12-27T20:45:03.054Z,11.26
2022-12-27T20:47:31.269Z,11.20
2022-12-27T20:49:59.536Z,11.24
2022-12-27T20:52:31.128Z,11.18
2022-12-27T20:55:00.201Z,11.13
2022-12-27T20:57:28.278Z,11.07
2022-12-27T20:59:56.753Z,11.08
2022-12-27T21:02:26.728Z,11.08
2022-12-27T21:04:55.253Z,11.06
2022-12-27T21:07:23.495Z,11.05
2022-12-27T21:09:51.758Z,11.11
2022-12-27T21:12:20.680Z,11.09
2022-12-27T21:14:50.071Z,11.02
2022-12-27T21:17:19.145Z,10.94
2022-12-27T21:19:50.764Z,10.90
2022-12-27T21:22:18.967Z,10.86
2022-12-27T21:24:47.243Z,10.75
2022-12-27T21:27:15.443Z,10.76
2022-12-27T21:29:43.832Z,10.72
2022-12-27T21:32:12.153Z,10.71
2022-12-27T21:34:41.373Z,10.68
2022-12-27T21:37:13.482Z,10.69
2022-12-27T21:39:41.791Z,10.67
2022-12-27T21:42:11.022Z,10.68
2022-12-27T21:44:39.346Z,10.71
2022-12-27T21:47:07.915Z,10.73
2022-12-27T21:49:40.407Z,10.72
2022-12-27T21:52:08.687Z,10.73
2022-12-27T21:54:38.240Z,10.76
2022-12-27T21:57:06.487Z,10.80
2022-12-27T21:59:34.874Z,10.90
2022-12-27T22:02:03.203Z,10.89
2022-12-27T22:04:31.483Z,10.94
2022-12-27T22:06:59.695Z,10.96
2022-12-27T22:09:27.833Z,10.97
2022-12-27T22:11:57.394Z,10.94
2022-12-27T22:14:26.394Z,10.98
2022-12-27T22:16:55.842Z,11.00
2022-12-27T22:19:23.900Z,11.02
2022-12-27T22:21:52.027Z,11.00
2022-12-27T22:24:20.482Z,11.01
2022-12-27T22:26:50.296Z,10.99
2022-12-27T22:29:21.794Z,11.02
2022-12-27T22:31:49.945Z,10.97
2022-12-27T22:34:18.360Z,10.96
2022-12-27T22:36:46.506Z,10.97
2022-12-27T22:39:14.537Z,10.94
2022-12-27T22:41:42.716Z,10.87
2022-12-27T22:44:13.585Z,10.84
2022-12-27T22:47:24.637Z,10.85
2022-12-27T22:49:32.046Z,10.86
2022-12-27T22:52:00.144Z,10.82
2022-12-27T22:55:05.211Z,10.79
2022-12-27T22:57:16.541Z,10.82
2022-12-27T22:59:44.648Z,10.83
2022-12-27T23:02:14.262Z,10.82
2022-12-27T23:04:42.683Z,10.81
2022-12-27T23:07:10.781Z,10.82
2022-12-27T23:09:43.152Z,10.78
2022-12-27T23:12:12.026Z,10.81
2022-12-27T23:14:40.388Z,10.82
2022-12-27T23:17:08.508Z,10.81
2022-12-27T23:19:37.966Z,10.85
2022-12-27T23:22:06.752Z,10.84
2022-12-27T23:24:35.202Z,10.79
2022-12-27T23:27:03.413Z,10.77
2022-12-27T23:29:31.540Z,10.80
2022-12-27T23:31:59.620Z,10.81
2022-12-27T23:34:29.180Z,10.75
2022-12-27T23:36:59.097Z,10.80
2022-12-27T23:39:27.504Z,10.79
2022-12-27T23:41:55.701Z,10.71
2022-12-27T23:44:34.098Z,10.76
2022-12-27T23:47:04.500Z,10.66
2022-12-27T23:49:32.770Z,10.81
2022-12-27T23:52:02.329Z,10.82
2022-12-27T23:54:30.516Z,10.80
2022-12-27T23:57:22.156Z,10.82
2022-12-27T23:59:47.205Z,10.83
